Fowlerton, Texas
Current Conditions -  °F | °C
As of 6:03 PM on Sunday 21 Dec 2014 (Local Time) from KNMT Reporting Station
Overcast Overcast  
Wind Chill: 61°   Ceiling: 3000
Heat Index: 61°   Visibility: NA
Dew Point: 53°   Wind: 14mph
Humidity: 75%   Direction: 110°ESE
Pressure: 29.87"   Gusts: 17mph
Location:  28.47°N, 98.81°W
Report Text: KNMT 220003Z AUTO 11012G15KT OVC030 16/12 A2987 RMK AO2 T01610117 PNO $
Loading
Personal Weather Stations






























Interactive Weather Map New forecast layout! Learn more

10-Day Weather Forecast

Advertisements
Track Severe Weather on mobile